Aérodrome :
LOGIN :

S'inscrire | Disclaimer

   EN    FR    IT 

 










Légende :    VFR   VFR Marginal   IFR   IFR Intensif   IFR Très Intensif
Visi : 
Plafond : 
>= 8 km
>= 3000ft
5 à 8 km
1000 à 3000 ft
1500m à 5 km
500 à 1000 ft
800 à 1500m
200 à 500 ft
< 800m
< 200 ft
Symboles :   Orages  Brouillard  Fortes neiges  Fortes précipitations  Vent > 20 kt
SIGMETs :   Divers  Orages  Givrage  Turbulence  Onde Orograph.  Cendres Volcan.







- Altitude de l'aérodrome : 751 ft
- Code IATA : ENC
- Voir les cartes d'approche


LFSN - Nancy Essey

DERNIER METAR :
  • 131630Z AUTO 20015KT 170V230 9999 -RA BKN015/// OVC034/// ///TCU 04/02 Q1004

METARs EXPIRÉS :
  • 131600Z AUTO 20015KT 170V230 9999 -RA OVC014/// ///TCU 04/02 Q1005
  • 131530Z AUTO 20016G26KT 9999 -RA OVC014/// ///TCU 04/02 Q1005
  • 131500Z AUTO 20017G29KT 9999 -RA OVC012/// ///TCU 03/02 Q1005
  • 131430Z AUTO 20018G31KT 7000 -RA BKN010 OVC015 03/02 Q1005
  • 131400Z AUTO 20017G28KT 5000 -RA BR BKN009 OVC013 03/02 Q1005

Prévision TAF périmée.
Pas de NOTAMs connus pour ce terrain.
2 SIGMETs publiés pour la FIR Reims (LFEE) :
 
Turbulence forte
LFEE SIGMET 2 VALID 131700/132000 LFPW
LFEE REIMS FIR/UIR SEV TURB FCST WI N4900 E00630 - N4900 E00730 - N4715 E00700 - N4715 E00515 - N4900 E00630 SFC/FL060 STNR NC=
Turbulence forte
LFEE SIGMET 1 VALID 131330/131700 LFPW
LFEE REIMS FIR/UIR SEV TURB FCST WI N4900 E00600 - N4900 E00730 - N4730 E00700 - N4715 E00515 - N4900 E00600 SFC/FL060 STNR NC=



MET'MAP, la Météo Aéronautique d'un coup d'oeil ! - Copyright ORBIFLY Décembre 2007 - Disclaimer

ORBIFLY MET'MAP TEAM :

Programmation & Développement : Alexandra Zaïnal
Conception & Développement : Baudouin d'Aumeries
Co-Programmation & Développement : Marc-Olivier Méhu
Soutien technique & logistique : Manuel Goepfert

Contact : metmap@orbifly.com




SOURCES & CREDITS :

   NOAA